createdAt,value
2023-03-12T00:00:40.991Z,1.70
2023-03-12T00:04:47.756Z,2.00
2023-03-12T00:08:51.410Z,3.23
2023-03-12T00:12:54.838Z,4.10
2023-03-12T00:16:58.514Z,2.13
2023-03-12T00:21:03.243Z,3.40
2023-03-12T00:25:12.179Z,6.27
2023-03-12T00:29:15.568Z,4.10
2023-03-12T00:33:18.880Z,2.73
2023-03-12T00:37:24.255Z,2.00
2023-03-12T00:41:28.254Z,3.50
2023-03-12T00:45:31.715Z,2.37
2023-03-12T00:49:35.402Z,1.73
2023-03-12T00:53:40.654Z,3.83
2023-03-12T00:57:44.102Z,3.27
2023-03-12T01:01:47.633Z,3.40
2023-03-12T01:05:54.192Z,2.13
2023-03-12T01:09:59.133Z,1.80
2023-03-12T01:14:03.641Z,2.03
2023-03-12T01:18:07.207Z,3.20
2023-03-12T01:22:10.708Z,2.00
2023-03-12T01:26:15.593Z,3.00
2023-03-12T01:30:19.278Z,3.33
2023-03-12T01:34:22.745Z,1.97
2023-03-12T01:38:26.113Z,2.20
2023-03-12T01:42:30.832Z,3.33
2023-03-12T01:46:36.173Z,3.13
2023-03-12T01:50:40.654Z,3.13
2023-03-12T01:54:49.672Z,4.00
2023-03-12T01:58:56.863Z,1.53
2023-03-12T02:03:03.549Z,3.10
2023-03-12T02:07:09.986Z,1.90
2023-03-12T02:11:13.322Z,2.53
2023-03-12T02:15:18.468Z,2.50
2023-03-12T02:19:29.363Z,2.07
2023-03-12T02:23:36.423Z,1.70
2023-03-12T02:27:42.111Z,4.13
2023-03-12T02:31:51.522Z,3.97
2023-03-12T02:35:55.764Z,3.03
2023-03-12T02:40:06.215Z,2.97
2023-03-12T02:44:15.689Z,2.10
2023-03-12T02:48:18.956Z,8.97
2023-03-12T02:52:22.267Z,2.10
2023-03-12T02:56:28.131Z,3.73
2023-03-12T03:00:34.914Z,3.60
2023-03-12T03:04:38.187Z,2.33
2023-03-12T03:08:41.816Z,4.40
2023-03-12T03:12:45.514Z,3.50
2023-03-12T03:16:50.589Z,2.37
2023-03-12T03:20:57.489Z,2.70
2023-03-12T03:25:00.777Z,2.13
2023-03-12T03:29:05.318Z,2.90
2023-03-12T03:37:22.594Z,3.77
2023-03-12T03:41:32.901Z,2.67
2023-03-12T03:45:36.539Z,3.70
2023-03-12T03:49:40.178Z,4.33
2023-03-12T03:53:45.277Z,4.67
2023-03-12T03:57:49.691Z,2.40
2023-03-12T04:01:53.638Z,5.23
2023-03-12T04:05:58.728Z,4.00
2023-03-12T04:10:04.139Z,6.17
2023-03-12T04:14:07.681Z,2.40
2023-03-12T04:18:11.544Z,2.57
2023-03-12T04:22:15.437Z,3.20
2023-03-12T04:26:20.730Z,3.80
2023-03-12T04:30:24.250Z,2.40
2023-03-12T04:34:27.783Z,2.47
2023-03-12T04:38:31.998Z,2.50
2023-03-12T04:42:37.588Z,4.00
2023-03-12T04:46:41.307Z,1.93
2023-03-12T04:50:45.122Z,2.63
2023-03-12T04:54:48.654Z,2.87
2023-03-12T04:58:54.452Z,5.13
2023-03-12T05:02:57.989Z,2.40
2023-03-12T05:07:01.721Z,3.57
2023-03-12T05:11:05.471Z,2.00
2023-03-12T05:15:11.553Z,5.40
2023-03-12T05:19:15.240Z,2.33
2023-03-12T05:23:19.638Z,3.30
2023-03-12T05:27:26.205Z,4.30
2023-03-12T05:31:35.587Z,4.73
2023-03-12T05:35:39.442Z,3.60
2023-03-12T05:39:47.042Z,2.90
2023-03-12T05:43:50.789Z,3.37
2023-03-12T05:47:55.705Z,3.20
2023-03-12T05:52:00.709Z,3.80
2023-03-12T05:56:05.346Z,3.63
2023-03-12T06:00:10.178Z,3.00
2023-03-12T06:04:15.291Z,3.13
2023-03-12T06:08:18.838Z,3.90
2023-03-12T06:12:22.573Z,2.87
2023-03-12T06:16:27.722Z,2.53
2023-03-12T06:20:32.956Z,2.23
2023-03-12T06:24:37.757Z,2.60
2023-03-12T06:28:41.634Z,2.87
2023-03-12T06:32:45.424Z,3.80
2023-03-12T06:36:50.572Z,2.40
2023-03-12T06:40:58.583Z,3.97
2023-03-12T06:45:02.282Z,4.43
2023-03-12T06:49:05.836Z,4.60
2023-03-12T06:53:11.035Z,3.13
2023-03-12T06:57:16.746Z,3.47
2023-03-12T07:01:20.315Z,2.33
2023-03-12T07:05:25.174Z,2.80
2023-03-12T07:09:30.150Z,4.83
2023-03-12T07:13:33.790Z,2.03
2023-03-12T07:17:37.516Z,3.30
2023-03-12T07:21:41.217Z,2.17
2023-03-12T07:25:46.634Z,3.80
2023-03-12T07:29:50.261Z,5.37
2023-03-12T07:33:54.022Z,3.97
2023-03-12T07:37:57.649Z,3.03
2023-03-12T07:42:03.190Z,2.50
2023-03-12T07:46:07.153Z,2.67
2023-03-12T07:50:12.085Z,3.37
2023-03-12T07:54:15.595Z,2.00
2023-03-12T07:58:20.688Z,3.63
2023-03-12T08:02:24.592Z,3.53
2023-03-12T08:06:28.451Z,2.27
2023-03-12T08:10:32.196Z,3.43
2023-03-12T08:14:38.146Z,5.40
2023-03-12T08:18:43.299Z,3.60
2023-03-12T08:22:47.108Z,3.00
2023-03-12T08:26:50.644Z,2.73
2023-03-12T08:30:57.325Z,3.20
2023-03-12T08:35:01.064Z,4.30
2023-03-12T08:39:04.672Z,4.37
2023-03-12T08:43:09.064Z,3.13
2023-03-12T08:47:14.012Z,2.40
2023-03-12T08:51:18.878Z,3.97
2023-03-12T08:55:22.431Z,8.13
2023-03-12T08:59:28.318Z,2.53
2023-03-12T09:03:33.494Z,3.70
2023-03-12T09:07:37.273Z,3.20
2023-03-12T09:11:41.183Z,3.10
2023-03-12T09:15:45.083Z,2.60
2023-03-12T09:19:50.253Z,3.40
2023-03-12T09:23:54.020Z,4.60
2023-03-12T09:27:57.589Z,2.73
2023-03-12T09:32:01.493Z,3.10
2023-03-12T09:36:07.091Z,3.47
2023-03-12T09:40:17.509Z,4.73
2023-03-12T09:44:30.957Z,3.33
2023-03-12T09:48:36.649Z,2.87
2023-03-12T09:52:49.818Z,3.40
2023-03-12T09:56:56.399Z,4.33
2023-03-12T10:01:11.671Z,2.57
2023-03-12T10:05:26.841Z,2.60
2023-03-12T10:09:52.197Z,2.60
2023-03-12T10:14:08.808Z,3.33
2023-03-12T10:18:24.203Z,3.10
2023-03-12T10:22:52.859Z,4.77
2023-03-12T10:27:30.623Z,2.87
2023-03-12T10:31:38.392Z,3.67
2023-03-12T10:35:43.125Z,4.20
2023-03-12T10:39:47.305Z,2.93
2023-03-12T10:43:52.865Z,6.03
2023-03-12T10:48:00.780Z,2.80
2023-03-12T10:52:07.844Z,3.40
2023-03-12T10:56:14.079Z,3.80
2023-03-12T11:00:25.823Z,3.10
2023-03-12T11:04:31.905Z,7.03
2023-03-12T11:08:38.756Z,4.57
2023-03-12T11:12:52.352Z,4.27
2023-03-12T11:16:58.373Z,3.40
2023-03-12T11:21:18.252Z,3.17
2023-03-12T11:25:24.982Z,4.43
2023-03-12T11:29:33.392Z,5.13
2023-03-12T11:33:38.695Z,4.13
2023-03-12T11:37:52.824Z,2.70
2023-03-12T11:42:11.464Z,3.67
2023-03-12T11:46:28.572Z,4.07
2023-03-12T11:50:43.867Z,3.40
2023-03-12T11:55:23.118Z,3.30
2023-03-12T11:59:39.970Z,3.80
2023-03-12T12:04:14.672Z,3.30
2023-03-12T12:08:31.786Z,3.00
2023-03-12T12:12:47.020Z,3.57
2023-03-12T12:17:15.154Z,3.17
2023-03-12T12:21:41.803Z,5.87
2023-03-12T12:26:07.621Z,3.80
2023-03-12T12:30:20.620Z,4.00
2023-03-12T12:34:46.736Z,4.40
2023-03-12T12:38:57.338Z,4.07
2023-03-12T12:43:12.419Z,5.27
2023-03-12T12:47:20.912Z,3.50
2023-03-12T12:51:29.468Z,2.80
2023-03-12T12:55:37.081Z,3.40
2023-03-12T12:59:45.755Z,3.60
2023-03-12T13:03:52.087Z,3.83
2023-03-12T13:07:56.377Z,3.20
2023-03-12T13:12:08.790Z,3.33
2023-03-12T13:16:34.443Z,2.67
2023-03-12T13:20:48.511Z,2.90
2023-03-12T13:25:00.451Z,4.13
2023-03-12T13:29:24.177Z,2.50
2023-03-12T13:33:45.475Z,3.00
2023-03-12T13:38:09.628Z,3.67
2023-03-12T13:43:02.713Z,3.53
2023-03-12T13:47:22.511Z,2.73
2023-03-12T13:51:28.801Z,2.80
2023-03-12T13:55:34.834Z,3.10
2023-03-12T13:59:46.178Z,2.60
2023-03-12T14:03:52.448Z,3.07
2023-03-12T14:08:12.948Z,4.00
2023-03-12T14:12:24.964Z,3.10
2023-03-12T14:16:35.226Z,4.00
2023-03-12T14:20:41.830Z,4.97
2023-03-12T14:24:55.506Z,3.33
2023-03-12T14:29:04.173Z,2.97
2023-03-12T14:33:09.090Z,3.33
2023-03-12T14:37:18.172Z,3.80
2023-03-12T14:41:31.580Z,2.83
2023-03-12T14:45:42.301Z,4.13
2023-03-12T14:49:47.831Z,2.70
2023-03-12T14:53:52.637Z,2.70
2023-03-12T14:58:17.032Z,4.67
2023-03-12T15:02:23.464Z,2.60
2023-03-12T15:06:31.852Z,3.63
2023-03-12T15:10:36.304Z,2.73
2023-03-12T15:14:44.005Z,3.50
2023-03-12T15:18:50.656Z,2.73
2023-03-12T15:22:55.501Z,2.67
2023-03-12T15:27:17.686Z,3.10
2023-03-12T15:31:23.583Z,4.10
2023-03-12T15:35:27.751Z,3.10
2023-03-12T15:39:34.440Z,3.20
2023-03-12T15:43:39.953Z,3.80
2023-03-12T15:47:54.260Z,3.60
2023-03-12T15:52:10.316Z,3.00
2023-03-12T15:56:26.813Z,3.60
2023-03-12T16:00:33.742Z,4.00
2023-03-12T16:04:40.465Z,2.93
2023-03-12T16:08:48.420Z,3.73
2023-03-12T16:12:55.645Z,3.23
2023-03-12T16:17:00.690Z,3.00
2023-03-12T16:21:07.872Z,3.20
2023-03-12T16:25:13.701Z,3.30
2023-03-12T16:29:20.788Z,2.43
2023-03-12T16:33:27.081Z,2.63
2023-03-12T16:37:34.468Z,3.23
2023-03-12T16:41:38.891Z,4.67
2023-03-12T16:45:46.578Z,8.93
2023-03-12T16:49:50.983Z,7.13
2023-03-12T16:54:09.480Z,9.10
2023-03-12T16:58:17.986Z,7.43
2023-03-12T17:02:23.369Z,4.20
2023-03-12T17:06:29.477Z,7.43
2023-03-12T17:10:35.440Z,7.00
2023-03-12T17:14:40.631Z,4.33
2023-03-12T17:18:45.800Z,3.33
2023-03-12T17:22:51.258Z,4.17
2023-03-12T17:26:58.860Z,3.33
2023-03-12T17:31:04.260Z,3.43
2023-03-12T17:35:10.118Z,7.27
2023-03-12T17:39:14.952Z,4.60
2023-03-12T17:43:21.774Z,4.57
2023-03-12T17:47:28.814Z,3.60
2023-03-12T17:51:36.149Z,7.00
2023-03-12T17:55:41.550Z,5.13
2023-03-12T17:59:48.897Z,3.83
2023-03-12T18:03:56.089Z,5.10
2023-03-12T18:08:04.033Z,3.53
2023-03-12T18:12:10.368Z,4.03
2023-03-12T18:16:17.095Z,7.03
2023-03-12T18:20:37.830Z,4.13
2023-03-12T18:24:46.069Z,4.40
2023-03-12T18:28:52.190Z,7.20
2023-03-12T18:32:59.736Z,8.77
2023-03-12T18:37:05.963Z,4.83
2023-03-12T18:41:14.125Z,5.00
2023-03-12T18:45:22.524Z,4.13
2023-03-12T18:49:35.295Z,6.30
2023-03-12T18:53:40.701Z,6.63
2023-03-12T18:57:47.205Z,6.90
2023-03-12T19:01:52.786Z,6.50
2023-03-12T19:06:08.376Z,10.73
2023-03-12T19:10:14.808Z,6.70
2023-03-12T19:14:20.569Z,9.70
2023-03-12T19:18:28.540Z,10.13
2023-03-12T19:22:39.824Z,8.87
2023-03-12T19:26:51.481Z,7.13
2023-03-12T19:31:03.171Z,7.93
2023-03-12T19:35:11.168Z,12.83
2023-03-12T19:39:21.624Z,13.93
2023-03-12T19:43:27.545Z,16.00
2023-03-12T19:47:34.925Z,10.90
2023-03-12T19:51:43.284Z,12.90
2023-03-12T19:55:52.063Z,9.27
2023-03-12T20:00:00.570Z,13.07
2023-03-12T20:04:09.967Z,12.77
2023-03-12T20:08:16.156Z,8.70
2023-03-12T20:12:23.765Z,8.70
2023-03-12T20:16:33.052Z,11.00
2023-03-12T20:20:37.934Z,12.10
2023-03-12T20:24:42.743Z,12.10
2023-03-12T20:28:56.480Z,12.37
2023-03-12T20:33:05.156Z,8.90
2023-03-12T20:37:10.324Z,9.13
2023-03-12T20:41:16.208Z,12.10
2023-03-12T20:45:32.931Z,9.87
2023-03-12T20:49:38.096Z,12.30
2023-03-12T20:53:43.437Z,10.63
2023-03-12T20:57:48.453Z,10.93
2023-03-12T21:01:58.996Z,10.80
2023-03-12T21:06:05.460Z,8.70
2023-03-12T21:10:12.173Z,8.70
2023-03-12T21:14:17.002Z,16.47
2023-03-12T21:18:23.299Z,14.80
2023-03-12T21:22:30.285Z,12.13
2023-03-12T21:26:35.285Z,13.27
2023-03-12T21:30:40.394Z,8.70
2023-03-12T21:34:47.116Z,7.27
2023-03-12T21:38:53.450Z,6.03
2023-03-12T21:42:59.582Z,6.50
2023-03-12T21:47:04.586Z,8.53
2023-03-12T21:51:12.217Z,9.67
2023-03-12T21:55:18.310Z,6.37
2023-03-12T21:59:23.126Z,9.30
2023-03-12T22:03:28.217Z,11.93
2023-03-12T22:07:34.325Z,20.87
2023-03-12T22:11:38.603Z,11.90
2023-03-12T22:15:42.671Z,8.97
2023-03-12T22:19:46.715Z,9.27
2023-03-12T22:23:53.080Z,6.83
2023-03-12T22:27:56.823Z,8.17
2023-03-12T22:32:00.383Z,9.47
2023-03-12T22:36:07.499Z,11.10
2023-03-12T22:40:14.190Z,11.93
2023-03-12T22:44:17.814Z,10.87
2023-03-12T22:48:21.734Z,13.20
2023-03-12T22:52:25.324Z,12.33
2023-03-12T22:56:30.769Z,7.47
2023-03-12T23:00:34.399Z,6.80
2023-03-12T23:04:38.255Z,6.20
2023-03-12T23:08:41.966Z,10.30
2023-03-12T23:12:47.167Z,7.57
2023-03-12T23:16:50.747Z,7.53
2023-03-12T23:21:00.020Z,7.03
2023-03-12T23:25:03.618Z,8.20
2023-03-12T23:29:09.147Z,7.17
2023-03-12T23:33:12.729Z,8.20
2023-03-12T23:37:16.325Z,8.07
2023-03-12T23:41:21.287Z,10.97
2023-03-12T23:45:26.511Z,6.60
2023-03-12T23:49:30.135Z,7.50
2023-03-12T23:53:34.463Z,6.87
2023-03-12T23:57:38.076Z,7.53
